sensor_id;sensor_type;location;lat;lon;timestamp;temperature;humidity
35258;DHT22;21385;50.878;8.050;2023-03-24T00:00:16;13.10;99.90
35258;DHT22;21385;50.878;8.050;2023-03-24T00:02:42;13.10;99.90
35258;DHT22;21385;50.878;8.050;2023-03-24T00:08:34;13.20;99.90
35258;DHT22;21385;50.878;8.050;2023-03-24T00:11:02;13.20;99.90
35258;DHT22;21385;50.878;8.050;2023-03-24T00:13:29;13.20;99.90
35258;DHT22;21385;50.878;8.050;2023-03-24T00:15:57;13.20;99.90
35258;DHT22;21385;50.878;8.050;2023-03-24T00:18:23;13.20;99.90
35258;DHT22;21385;50.878;8.050;2023-03-24T00:20:52;13.10;99.90
35258;DHT22;21385;50.878;8.050;2023-03-24T00:23:24;13.20;99.90
35258;DHT22;21385;50.878;8.050;2023-03-24T00:26:08;13.20;99.90
35258;DHT22;21385;50.878;8.050;2023-03-24T00:28:36;13.10;99.90
35258;DHT22;21385;50.878;8.050;2023-03-24T00:31:05;13.00;99.90
35258;DHT22;21385;50.878;8.050;2023-03-24T00:33:31;13.00;99.90
35258;DHT22;21385;50.878;8.050;2023-03-24T00:36:00;13.00;99.90
35258;DHT22;21385;50.878;8.050;2023-03-24T00:38:26;12.90;99.90
35258;DHT22;21385;50.878;8.050;2023-03-24T00:40:52;12.90;99.90
35258;DHT22;21385;50.878;8.050;2023-03-24T00:43:18;12.90;99.90
35258;DHT22;21385;50.878;8.050;2023-03-24T00:45:44;12.90;99.90
35258;DHT22;21385;50.878;8.050;2023-03-24T00:48:14;12.90;99.90
35258;DHT22;21385;50.878;8.050;2023-03-24T00:50:44;12.90;99.90
35258;DHT22;21385;50.878;8.050;2023-03-24T00:53:11;12.90;99.90
35258;DHT22;21385;50.878;8.050;2023-03-24T00:55:41;12.80;99.90
35258;DHT22;21385;50.878;8.050;2023-03-24T00:58:06;12.80;99.90
35258;DHT22;21385;50.878;8.050;2023-03-24T01:00:32;12.80;99.90
35258;DHT22;21385;50.878;8.050;2023-03-24T01:02:58;12.90;99.90
35258;DHT22;21385;50.878;8.050;2023-03-24T01:05:27;12.90;99.90
35258;DHT22;21385;50.878;8.050;2023-03-24T01:07:56;12.90;99.90
35258;DHT22;21385;50.878;8.050;2023-03-24T01:10:23;13.00;99.90
35258;DHT22;21385;50.878;8.050;2023-03-24T01:12:52;13.00;99.90
35258;DHT22;21385;50.878;8.050;2023-03-24T01:15:19;13.00;99.90
35258;DHT22;21385;50.878;8.050;2023-03-24T01:17:46;13.00;99.90
35258;DHT22;21385;50.878;8.050;2023-03-24T01:20:13;13.00;99.90
35258;DHT22;21385;50.878;8.050;2023-03-24T01:22:40;13.10;99.90
35258;DHT22;21385;50.878;8.050;2023-03-24T01:25:15;13.00;99.90
35258;DHT22;21385;50.878;8.050;2023-03-24T01:27:42;13.00;99.90
35258;DHT22;21385;50.878;8.050;2023-03-24T01:30:12;13.00;99.90
35258;DHT22;21385;50.878;8.050;2023-03-24T01:32:38;13.10;99.90
35258;DHT22;21385;50.878;8.050;2023-03-24T01:35:04;13.00;99.90
35258;DHT22;21385;50.878;8.050;2023-03-24T01:37:30;13.10;99.90
35258;DHT22;21385;50.878;8.050;2023-03-24T01:39:56;13.00;99.90
35258;DHT22;21385;50.878;8.050;2023-03-24T01:42:24;13.00;99.90
35258;DHT22;21385;50.878;8.050;2023-03-24T01:44:55;13.00;99.90
35258;DHT22;21385;50.878;8.050;2023-03-24T01:47:21;13.00;99.90
35258;DHT22;21385;50.878;8.050;2023-03-24T01:49:52;13.00;99.90
35258;DHT22;21385;50.878;8.050;2023-03-24T01:52:23;13.00;99.90
35258;DHT22;21385;50.878;8.050;2023-03-24T01:55:02;13.10;99.90
35258;DHT22;21385;50.878;8.050;2023-03-24T01:57:38;13.10;99.90
35258;DHT22;21385;50.878;8.050;2023-03-24T02:00:13;13.10;99.90
35258;DHT22;21385;50.878;8.050;2023-03-24T02:02:41;13.10;99.90
35258;DHT22;21385;50.878;8.050;2023-03-24T02:05:11;13.10;99.90
35258;DHT22;21385;50.878;8.050;2023-03-24T02:07:57;13.10;99.90
35258;DHT22;21385;50.878;8.050;2023-03-24T02:10:26;13.20;99.90
35258;DHT22;21385;50.878;8.050;2023-03-24T02:12:51;13.20;99.90
35258;DHT22;21385;50.878;8.050;2023-03-24T02:15:18;13.20;99.90
35258;DHT22;21385;50.878;8.050;2023-03-24T02:18:09;13.20;99.90
35258;DHT22;21385;50.878;8.050;2023-03-24T02:23:54;13.00;99.90
35258;DHT22;21385;50.878;8.050;2023-03-24T02:40:21;13.20;99.90
35258;DHT22;21385;50.878;8.050;2023-03-24T02:59:34;13.10;99.90
35258;DHT22;21385;50.878;8.050;2023-03-24T03:02:08;13.00;99.90
35258;DHT22;21385;50.878;8.050;2023-03-24T03:04:46;13.10;99.90
35258;DHT22;21385;50.878;8.050;2023-03-24T03:07:17;13.20;99.90
35258;DHT22;21385;50.878;8.050;2023-03-24T03:10:01;13.20;99.90
35258;DHT22;21385;50.878;8.050;2023-03-24T03:12:30;13.20;99.90
35258;DHT22;21385;50.878;8.050;2023-03-24T03:15:03;13.20;99.90
35258;DHT22;21385;50.878;8.050;2023-03-24T03:17:35;13.20;99.90
35258;DHT22;21385;50.878;8.050;2023-03-24T03:20:15;13.20;99.90
35258;DHT22;21385;50.878;8.050;2023-03-24T03:23:02;13.20;99.90
35258;DHT22;21385;50.878;8.050;2023-03-24T03:25:35;13.20;99.90
35258;DHT22;21385;50.878;8.050;2023-03-24T03:28:04;13.30;99.90
35258;DHT22;21385;50.878;8.050;2023-03-24T03:30:35;13.30;99.90
35258;DHT22;21385;50.878;8.050;2023-03-24T03:33:09;13.30;99.90
35258;DHT22;21385;50.878;8.050;2023-03-24T03:35:46;13.20;99.90
35258;DHT22;21385;50.878;8.050;2023-03-24T03:38:21;13.20;99.90
35258;DHT22;21385;50.878;8.050;2023-03-24T03:40:54;13.30;99.90
35258;DHT22;21385;50.878;8.050;2023-03-24T03:43:20;13.30;99.90
35258;DHT22;21385;50.878;8.050;2023-03-24T03:45:46;13.20;99.90
35258;DHT22;21385;50.878;8.050;2023-03-24T03:48:12;13.30;99.90
35258;DHT22;21385;50.878;8.050;2023-03-24T03:50:39;13.30;99.90
35258;DHT22;21385;50.878;8.050;2023-03-24T03:53:08;13.40;99.90
35258;DHT22;21385;50.878;8.050;2023-03-24T03:55:36;13.40;99.90
35258;DHT22;21385;50.878;8.050;2023-03-24T03:58:02;13.40;99.90
35258;DHT22;21385;50.878;8.050;2023-03-24T04:00:29;13.40;99.90
35258;DHT22;21385;50.878;8.050;2023-03-24T04:14:03;13.30;99.90
35258;DHT22;21385;50.878;8.050;2023-03-24T04:27:30;13.20;99.90
35258;DHT22;21385;50.878;8.050;2023-03-24T04:32:54;13.30;99.90
35258;DHT22;21385;50.878;8.050;2023-03-24T04:38:18;13.30;99.90
35258;DHT22;21385;50.878;8.050;2023-03-24T04:40:48;13.20;99.90
35258;DHT22;21385;50.878;8.050;2023-03-24T04:43:18;13.30;99.90
35258;DHT22;21385;50.878;8.050;2023-03-24T04:45:45;13.30;99.90
35258;DHT22;21385;50.878;8.050;2023-03-24T04:48:15;13.30;99.90
35258;DHT22;21385;50.878;8.050;2023-03-24T04:50:52;13.30;99.90
35258;DHT22;21385;50.878;8.050;2023-03-24T04:53:18;13.40;99.90
35258;DHT22;21385;50.878;8.050;2023-03-24T04:58:16;13.30;99.90
35258;DHT22;21385;50.878;8.050;2023-03-24T05:00:42;13.30;99.90
35258;DHT22;21385;50.878;8.050;2023-03-24T05:03:09;13.30;99.90
35258;DHT22;21385;50.878;8.050;2023-03-24T05:05:38;13.40;99.90
35258;DHT22;21385;50.878;8.050;2023-03-24T05:08:05;13.50;99.90
35258;DHT22;21385;50.878;8.050;2023-03-24T05:10:31;13.40;99.90
35258;DHT22;21385;50.878;8.050;2023-03-24T05:12:56;13.40;99.90
35258;DHT22;21385;50.878;8.050;2023-03-24T05:15:22;13.40;99.90
35258;DHT22;21385;50.878;8.050;2023-03-24T05:17:47;13.40;99.90
35258;DHT22;21385;50.878;8.050;2023-03-24T05:20:13;13.40;99.90
35258;DHT22;21385;50.878;8.050;2023-03-24T05:22:39;13.50;99.90
35258;DHT22;21385;50.878;8.050;2023-03-24T05:25:05;13.40;99.90
35258;DHT22;21385;50.878;8.050;2023-03-24T05:27:31;13.40;99.90
35258;DHT22;21385;50.878;8.050;2023-03-24T05:29:56;13.50;99.90
35258;DHT22;21385;50.878;8.050;2023-03-24T05:32:22;13.40;99.90
35258;DHT22;21385;50.878;8.050;2023-03-24T05:37:14;13.40;99.90
35258;DHT22;21385;50.878;8.050;2023-03-24T05:39:42;13.40;99.90
35258;DHT22;21385;50.878;8.050;2023-03-24T05:42:08;13.30;99.90
35258;DHT22;21385;50.878;8.050;2023-03-24T05:44:34;13.20;99.90
35258;DHT22;21385;50.878;8.050;2023-03-24T05:47:00;13.20;99.90
35258;DHT22;21385;50.878;8.050;2023-03-24T05:49:25;13.30;99.90
35258;DHT22;21385;50.878;8.050;2023-03-24T05:51:51;13.30;99.90
35258;DHT22;21385;50.878;8.050;2023-03-24T05:54:16;13.30;99.90
35258;DHT22;21385;50.878;8.050;2023-03-24T05:56:42;13.40;99.90
35258;DHT22;21385;50.878;8.050;2023-03-24T05:59:08;13.40;99.90
35258;DHT22;21385;50.878;8.050;2023-03-24T06:01:33;13.40;99.90
35258;DHT22;21385;50.878;8.050;2023-03-24T06:03:59;13.30;99.90
35258;DHT22;21385;50.878;8.050;2023-03-24T06:06:24;13.30;99.90
35258;DHT22;21385;50.878;8.050;2023-03-24T06:08:51;13.40;99.90
35258;DHT22;21385;50.878;8.050;2023-03-24T06:11:19;13.30;99.90
35258;DHT22;21385;50.878;8.050;2023-03-24T06:13:45;13.40;99.90
35258;DHT22;21385;50.878;8.050;2023-03-24T06:16:11;13.40;99.90
35258;DHT22;21385;50.878;8.050;2023-03-24T06:18:37;13.40;99.90
35258;DHT22;21385;50.878;8.050;2023-03-24T06:21:05;13.20;99.90
35258;DHT22;21385;50.878;8.050;2023-03-24T06:23:31;12.90;99.90
35258;DHT22;21385;50.878;8.050;2023-03-24T06:25:58;12.50;99.90
35258;DHT22;21385;50.878;8.050;2023-03-24T06:28:26;12.20;99.90
35258;DHT22;21385;50.878;8.050;2023-03-24T06:30:55;11.80;99.90
35258;DHT22;21385;50.878;8.050;2023-03-24T06:33:21;11.70;99.90
35258;DHT22;21385;50.878;8.050;2023-03-24T06:35:50;11.70;99.90
35258;DHT22;21385;50.878;8.050;2023-03-24T06:38:16;11.60;99.90
35258;DHT22;21385;50.878;8.050;2023-03-24T06:40:42;11.50;99.90
35258;DHT22;21385;50.878;8.050;2023-03-24T06:43:08;11.40;99.90
35258;DHT22;21385;50.878;8.050;2023-03-24T06:45:33;11.40;99.90
35258;DHT22;21385;50.878;8.050;2023-03-24T06:47:59;11.30;99.90
35258;DHT22;21385;50.878;8.050;2023-03-24T06:50:25;11.30;99.90
35258;DHT22;21385;50.878;8.050;2023-03-24T06:52:52;11.20;99.90
35258;DHT22;21385;50.878;8.050;2023-03-24T06:55:18;11.30;99.90
35258;DHT22;21385;50.878;8.050;2023-03-24T06:57:44;11.20;99.90
35258;DHT22;21385;50.878;8.050;2023-03-24T07:00:10;11.30;99.90
35258;DHT22;21385;50.878;8.050;2023-03-24T07:02:36;11.20;99.90
35258;DHT22;21385;50.878;8.050;2023-03-24T07:05:03;11.20;99.90
35258;DHT22;21385;50.878;8.050;2023-03-24T07:07:34;11.30;99.90
35258;DHT22;21385;50.878;8.050;2023-03-24T07:10:00;11.30;99.90
35258;DHT22;21385;50.878;8.050;2023-03-24T07:12:26;11.30;99.90
35258;DHT22;21385;50.878;8.050;2023-03-24T07:14:52;11.30;99.90
35258;DHT22;21385;50.878;8.050;2023-03-24T07:17:18;11.30;99.90
35258;DHT22;21385;50.878;8.050;2023-03-24T07:19:43;11.30;99.90
35258;DHT22;21385;50.878;8.050;2023-03-24T07:22:12;11.30;99.90
35258;DHT22;21385;50.878;8.050;2023-03-24T07:24:38;11.30;99.90
35258;DHT22;21385;50.878;8.050;2023-03-24T07:27:04;11.30;99.90
35258;DHT22;21385;50.878;8.050;2023-03-24T07:29:29;11.40;99.90
35258;DHT22;21385;50.878;8.050;2023-03-24T07:31:56;11.40;99.90
35258;DHT22;21385;50.878;8.050;2023-03-24T07:34:29;11.40;99.90
35258;DHT22;21385;50.878;8.050;2023-03-24T07:36:55;11.40;99.90
35258;DHT22;21385;50.878;8.050;2023-03-24T07:39:20;11.30;99.90
35258;DHT22;21385;50.878;8.050;2023-03-24T07:41:46;11.30;99.90
35258;DHT22;21385;50.878;8.050;2023-03-24T07:44:12;11.30;99.90
35258;DHT22;21385;50.878;8.050;2023-03-24T07:46:38;11.30;99.90
35258;DHT22;21385;50.878;8.050;2023-03-24T07:49:04;11.40;99.90
35258;DHT22;21385;50.878;8.050;2023-03-24T07:51:31;11.50;99.90
35258;DHT22;21385;50.878;8.050;2023-03-24T07:53:57;11.60;99.90
35258;DHT22;21385;50.878;8.050;2023-03-24T07:56:23;11.50;99.90
35258;DHT22;21385;50.878;8.050;2023-03-24T07:58:48;11.50;99.90
35258;DHT22;21385;50.878;8.050;2023-03-24T08:01:14;11.50;99.90
35258;DHT22;21385;50.878;8.050;2023-03-24T08:03:40;11.50;99.90
35258;DHT22;21385;50.878;8.050;2023-03-24T08:06:07;11.30;99.90
35258;DHT22;21385;50.878;8.050;2023-03-24T08:08:34;11.30;99.90
35258;DHT22;21385;50.878;8.050;2023-03-24T08:10:59;11.30;99.90
35258;DHT22;21385;50.878;8.050;2023-03-24T08:13:25;11.30;99.90
35258;DHT22;21385;50.878;8.050;2023-03-24T08:15:51;11.30;99.90
35258;DHT22;21385;50.878;8.050;2023-03-24T08:18:20;11.20;99.90
35258;DHT22;21385;50.878;8.050;2023-03-24T08:20:48;11.20;99.90
35258;DHT22;21385;50.878;8.050;2023-03-24T08:23:14;11.20;99.90
35258;DHT22;21385;50.878;8.050;2023-03-24T08:25:40;11.20;99.90
35258;DHT22;21385;50.878;8.050;2023-03-24T08:28:06;11.20;99.90
35258;DHT22;21385;50.878;8.050;2023-03-24T08:30:32;11.20;99.90
35258;DHT22;21385;50.878;8.050;2023-03-24T08:32:59;11.20;99.90
35258;DHT22;21385;50.878;8.050;2023-03-24T08:35:31;11.20;99.90
35258;DHT22;21385;50.878;8.050;2023-03-24T08:37:57;11.20;99.90
35258;DHT22;21385;50.878;8.050;2023-03-24T08:40:27;11.20;99.90
35258;DHT22;21385;50.878;8.050;2023-03-24T08:42:58;11.20;99.90
35258;DHT22;21385;50.878;8.050;2023-03-24T08:45:26;11.10;99.90
35258;DHT22;21385;50.878;8.050;2023-03-24T08:47:53;11.10;99.90
35258;DHT22;21385;50.878;8.050;2023-03-24T08:50:21;11.10;99.90
35258;DHT22;21385;50.878;8.050;2023-03-24T08:52:48;11.10;99.90
35258;DHT22;21385;50.878;8.050;2023-03-24T08:55:15;11.20;99.90
35258;DHT22;21385;50.878;8.050;2023-03-24T08:57:41;11.30;99.90
35258;DHT22;21385;50.878;8.050;2023-03-24T09:00:07;11.50;99.90
35258;DHT22;21385;50.878;8.050;2023-03-24T09:02:39;11.60;99.90
35258;DHT22;21385;50.878;8.050;2023-03-24T09:05:05;11.70;99.90
35258;DHT22;21385;50.878;8.050;2023-03-24T09:07:30;11.80;99.90
35258;DHT22;21385;50.878;8.050;2023-03-24T09:09:56;11.80;99.90
35258;DHT22;21385;50.878;8.050;2023-03-24T09:12:22;11.70;99.90
35258;DHT22;21385;50.878;8.050;2023-03-24T09:14:48;11.70;99.90
35258;DHT22;21385;50.878;8.050;2023-03-24T09:17:15;11.90;99.90
35258;DHT22;21385;50.878;8.050;2023-03-24T09:19:40;11.80;99.90
35258;DHT22;21385;50.878;8.050;2023-03-24T09:22:06;11.70;99.90
35258;DHT22;21385;50.878;8.050;2023-03-24T09:24:31;11.60;99.90
35258;DHT22;21385;50.878;8.050;2023-03-24T09:26:57;11.60;99.90
35258;DHT22;21385;50.878;8.050;2023-03-24T09:29:23;11.50;99.90
35258;DHT22;21385;50.878;8.050;2023-03-24T09:31:48;11.50;99.90
35258;DHT22;21385;50.878;8.050;2023-03-24T09:34:14;11.60;99.90
35258;DHT22;21385;50.878;8.050;2023-03-24T09:36:40;11.50;99.90
35258;DHT22;21385;50.878;8.050;2023-03-24T09:39:06;11.50;99.90
35258;DHT22;21385;50.878;8.050;2023-03-24T09:41:33;11.50;99.90
35258;DHT22;21385;50.878;8.050;2023-03-24T09:46:56;11.40;99.90
35258;DHT22;21385;50.878;8.050;2023-03-24T09:49:27;11.60;99.90
35258;DHT22;21385;50.878;8.050;2023-03-24T09:51:59;11.60;99.90
35258;DHT22;21385;50.878;8.050;2023-03-24T09:55:05;11.70;99.90
35258;DHT22;21385;50.878;8.050;2023-03-24T09:57:43;11.80;99.90
35258;DHT22;21385;50.878;8.050;2023-03-24T10:02:45;12.00;99.90
35258;DHT22;21385;50.878;8.050;2023-03-24T10:05:24;12.00;99.90
35258;DHT22;21385;50.878;8.050;2023-03-24T10:08:03;12.10;99.90
35258;DHT22;21385;50.878;8.050;2023-03-24T10:13:24;12.30;99.90
35258;DHT22;21385;50.878;8.050;2023-03-24T10:16:03;12.20;99.90
35258;DHT22;21385;50.878;8.050;2023-03-24T10:18:39;12.20;99.90
35258;DHT22;21385;50.878;8.050;2023-03-24T10:21:20;12.20;99.90
35258;DHT22;21385;50.878;8.050;2023-03-24T10:24:22;12.20;99.90
35258;DHT22;21385;50.878;8.050;2023-03-24T10:26:59;12.30;99.90
35258;DHT22;21385;50.878;8.050;2023-03-24T10:29:30;12.30;99.90
35258;DHT22;21385;50.878;8.050;2023-03-24T10:32:02;12.50;99.90
35258;DHT22;21385;50.878;8.050;2023-03-24T10:34:31;12.50;99.90
35258;DHT22;21385;50.878;8.050;2023-03-24T10:37:00;12.50;99.90
35258;DHT22;21385;50.878;8.050;2023-03-24T10:39:27;12.50;99.90
35258;DHT22;21385;50.878;8.050;2023-03-24T10:41:53;12.50;99.90
35258;DHT22;21385;50.878;8.050;2023-03-24T10:44:19;12.50;99.90
35258;DHT22;21385;50.878;8.050;2023-03-24T10:46:48;12.40;99.90
35258;DHT22;21385;50.878;8.050;2023-03-24T10:49:17;12.50;99.90
35258;DHT22;21385;50.878;8.050;2023-03-24T10:52:07;12.50;99.90
35258;DHT22;21385;50.878;8.050;2023-03-24T10:54:33;12.30;99.90
35258;DHT22;21385;50.878;8.050;2023-03-24T11:00:13;12.20;99.90
35258;DHT22;21385;50.878;8.050;2023-03-24T11:02:31;12.40;99.90
35258;DHT22;21385;50.878;8.050;2023-03-24T11:05:00;12.60;99.90
35258;DHT22;21385;50.878;8.050;2023-03-24T11:07:34;12.90;99.90
35258;DHT22;21385;50.878;8.050;2023-03-24T11:12:40;13.50;99.90
35258;DHT22;21385;50.878;8.050;2023-03-24T11:15:22;13.80;99.90
35258;DHT22;21385;50.878;8.050;2023-03-24T11:20:43;13.90;99.90
35258;DHT22;21385;50.878;8.050;2023-03-24T11:23:19;13.90;99.90
35258;DHT22;21385;50.878;8.050;2023-03-24T11:25:52;14.20;99.90
35258;DHT22;21385;50.878;8.050;2023-03-24T11:28:26;14.30;99.90
35258;DHT22;21385;50.878;8.050;2023-03-24T11:30:53;14.40;99.90
35258;DHT22;21385;50.878;8.050;2023-03-24T11:33:27;14.40;99.90
35258;DHT22;21385;50.878;8.050;2023-03-24T11:35:57;14.50;99.90
35258;DHT22;21385;50.878;8.050;2023-03-24T11:38:33;14.60;99.90
35258;DHT22;21385;50.878;8.050;2023-03-24T11:41:01;14.80;99.90
35258;DHT22;21385;50.878;8.050;2023-03-24T11:43:29;14.80;99.90
35258;DHT22;21385;50.878;8.050;2023-03-24T11:51:21;14.80;99.90
35258;DHT22;21385;50.878;8.050;2023-03-24T11:53:50;14.80;99.90
35258;DHT22;21385;50.878;8.050;2023-03-24T11:56:34;14.90;99.90
35258;DHT22;21385;50.878;8.050;2023-03-24T12:01:40;15.20;99.90
35258;DHT22;21385;50.878;8.050;2023-03-24T12:15:18;15.70;99.90
35258;DHT22;21385;50.878;8.050;2023-03-24T12:20:31;15.70;99.90
35258;DHT22;21385;50.878;8.050;2023-03-24T12:23:19;15.70;99.90
35258;DHT22;21385;50.878;8.050;2023-03-24T12:26:04;16.00;99.90
35258;DHT22;21385;50.878;8.050;2023-03-24T12:28:51;16.40;99.90
35258;DHT22;21385;50.878;8.050;2023-03-24T12:50:58;15.80;96.40
35258;DHT22;21385;50.878;8.050;2023-03-24T12:56:25;15.60;97.90
35258;DHT22;21385;50.878;8.050;2023-03-24T13:01:36;16.70;95.50
35258;DHT22;21385;50.878;8.050;2023-03-24T13:04:17;16.90;92.50
35258;DHT22;21385;50.878;8.050;2023-03-24T13:06:47;17.00;91.90
35258;DHT22;21385;50.878;8.050;2023-03-24T13:12:03;16.80;90.00
35258;DHT22;21385;50.878;8.050;2023-03-24T13:31:32;17.20;87.40
35258;DHT22;21385;50.878;8.050;2023-03-24T13:34:01;17.20;89.10
35258;DHT22;21385;50.878;8.050;2023-03-24T13:36:43;17.80;85.40
35258;DHT22;21385;50.878;8.050;2023-03-24T13:39:15;17.90;85.40
35258;DHT22;21385;50.878;8.050;2023-03-24T13:41:49;17.80;86.00
35258;DHT22;21385;50.878;8.050;2023-03-24T13:44:35;17.60;84.00
35258;DHT22;21385;50.878;8.050;2023-03-24T13:47:11;17.80;88.50
35258;DHT22;21385;50.878;8.050;2023-03-24T13:49:38;18.70;81.10
35258;DHT22;21385;50.878;8.050;2023-03-24T13:52:19;18.60;77.90
35258;DHT22;21385;50.878;8.050;2023-03-24T13:54:46;18.60;77.00
35258;DHT22;21385;50.878;8.050;2023-03-24T13:57:19;18.60;78.50
35258;DHT22;21385;50.878;8.050;2023-03-24T14:02:42;18.10;78.80
35258;DHT22;21385;50.878;8.050;2023-03-24T14:13:00;17.40;82.40
35258;DHT22;21385;50.878;8.050;2023-03-24T14:21:02;16.70;80.60
35258;DHT22;21385;50.878;8.050;2023-03-24T14:28:50;16.70;81.60
35258;DHT22;21385;50.878;8.050;2023-03-24T14:31:27;17.00;81.70
35258;DHT22;21385;50.878;8.050;2023-03-24T14:36:27;16.80;79.90
35258;DHT22;21385;50.878;8.050;2023-03-24T14:38:56;16.70;79.80
35258;DHT22;21385;50.878;8.050;2023-03-24T14:41:29;17.00;79.50
35258;DHT22;21385;50.878;8.050;2023-03-24T14:43:59;16.90;79.20
35258;DHT22;21385;50.878;8.050;2023-03-24T14:46:34;16.70;80.60
35258;DHT22;21385;50.878;8.050;2023-03-24T14:52:11;16.80;80.60
35258;DHT22;21385;50.878;8.050;2023-03-24T14:54:52;16.70;81.90
35258;DHT22;21385;50.878;8.050;2023-03-24T14:57:39;16.40;80.30
35258;DHT22;21385;50.878;8.050;2023-03-24T15:00:35;16.30;83.00
35258;DHT22;21385;50.878;8.050;2023-03-24T15:03:29;15.90;84.20
35258;DHT22;21385;50.878;8.050;2023-03-24T15:08:36;16.20;83.60
35258;DHT22;21385;50.878;8.050;2023-03-24T15:11:05;16.20;83.50
35258;DHT22;21385;50.878;8.050;2023-03-24T15:13:51;16.10;84.40
35258;DHT22;21385;50.878;8.050;2023-03-24T15:16:22;16.10;84.90
35258;DHT22;21385;50.878;8.050;2023-03-24T15:18:52;15.90;85.60
35258;DHT22;21385;50.878;8.050;2023-03-24T15:21:35;15.90;86.80
35258;DHT22;21385;50.878;8.050;2023-03-24T15:24:19;15.90;86.50
35258;DHT22;21385;50.878;8.050;2023-03-24T15:26:51;15.60;87.70
35258;DHT22;21385;50.878;8.050;2023-03-24T15:29:17;15.20;88.80
35258;DHT22;21385;50.878;8.050;2023-03-24T15:31:43;15.10;89.80
35258;DHT22;21385;50.878;8.050;2023-03-24T15:36:54;14.90;90.50
35258;DHT22;21385;50.878;8.050;2023-03-24T15:39:34;14.90;90.50
35258;DHT22;21385;50.878;8.050;2023-03-24T15:42:04;14.90;91.30
35258;DHT22;21385;50.878;8.050;2023-03-24T15:44:36;14.90;91.60
35258;DHT22;21385;50.878;8.050;2023-03-24T15:47:03;14.90;91.80
35258;DHT22;21385;50.878;8.050;2023-03-24T15:49:32;14.90;92.50
35258;DHT22;21385;50.878;8.050;2023-03-24T15:52:03;14.90;92.60
35258;DHT22;21385;50.878;8.050;2023-03-24T15:54:47;14.90;93.40
35258;DHT22;21385;50.878;8.050;2023-03-24T15:57:16;14.90;93.40
35258;DHT22;21385;50.878;8.050;2023-03-24T15:59:48;14.80;94.60
35258;DHT22;21385;50.878;8.050;2023-03-24T16:02:40;14.70;95.60
35258;DHT22;21385;50.878;8.050;2023-03-24T16:05:25;14.60;96.20
35258;DHT22;21385;50.878;8.050;2023-03-24T16:08:00;14.20;96.90
35258;DHT22;21385;50.878;8.050;2023-03-24T16:10:38;13.80;98.30
35258;DHT22;21385;50.878;8.050;2023-03-24T16:15:44;13.50;99.90
35258;DHT22;21385;50.878;8.050;2023-03-24T16:18:16;13.20;99.90
35258;DHT22;21385;50.878;8.050;2023-03-24T16:20:43;13.10;99.90
35258;DHT22;21385;50.878;8.050;2023-03-24T16:23:12;12.90;99.90
35258;DHT22;21385;50.878;8.050;2023-03-24T16:25:39;12.60;99.90
35258;DHT22;21385;50.878;8.050;2023-03-24T16:28:07;12.50;99.90
35258;DHT22;21385;50.878;8.050;2023-03-24T16:30:37;12.50;99.90
35258;DHT22;21385;50.878;8.050;2023-03-24T16:33:04;12.70;99.90
35258;DHT22;21385;50.878;8.050;2023-03-24T16:35:31;13.30;99.90
35258;DHT22;21385;50.878;8.050;2023-03-24T16:37:57;14.00;99.90
35258;DHT22;21385;50.878;8.050;2023-03-24T16:40:47;14.70;99.90
35258;DHT22;21385;50.878;8.050;2023-03-24T16:43:13;15.10;99.90
35258;DHT22;21385;50.878;8.050;2023-03-24T16:45:40;15.00;99.90
35258;DHT22;21385;50.878;8.050;2023-03-24T16:48:09;14.80;99.90
35258;DHT22;21385;50.878;8.050;2023-03-24T16:50:40;14.60;99.90
35258;DHT22;21385;50.878;8.050;2023-03-24T16:53:07;14.40;99.90
35258;DHT22;21385;50.878;8.050;2023-03-24T16:55:35;14.20;99.90
35258;DHT22;21385;50.878;8.050;2023-03-24T16:58:01;14.10;99.90
35258;DHT22;21385;50.878;8.050;2023-03-24T17:00:26;14.10;99.90
35258;DHT22;21385;50.878;8.050;2023-03-24T17:02:54;14.10;99.90
35258;DHT22;21385;50.878;8.050;2023-03-24T17:05:21;14.20;99.90
35258;DHT22;21385;50.878;8.050;2023-03-24T17:07:48;14.30;99.90
35258;DHT22;21385;50.878;8.050;2023-03-24T17:10:14;14.40;99.90
35258;DHT22;21385;50.878;8.050;2023-03-24T17:12:40;14.40;99.90
35258;DHT22;21385;50.878;8.050;2023-03-24T17:15:08;14.40;99.90
35258;DHT22;21385;50.878;8.050;2023-03-24T17:17:35;14.30;99.90
35258;DHT22;21385;50.878;8.050;2023-03-24T17:20:01;14.40;99.90
35258;DHT22;21385;50.878;8.050;2023-03-24T17:22:28;14.50;99.90
35258;DHT22;21385;50.878;8.050;2023-03-24T17:24:53;14.60;99.90
35258;DHT22;21385;50.878;8.050;2023-03-24T17:27:22;14.80;99.90
35258;DHT22;21385;50.878;8.050;2023-03-24T17:29:48;15.00;99.90
35258;DHT22;21385;50.878;8.050;2023-03-24T17:32:14;15.00;99.90
35258;DHT22;21385;50.878;8.050;2023-03-24T17:34:44;14.90;99.90
35258;DHT22;21385;50.878;8.050;2023-03-24T17:37:09;14.80;99.90
35258;DHT22;21385;50.878;8.050;2023-03-24T17:39:35;14.60;99.90
35258;DHT22;21385;50.878;8.050;2023-03-24T17:42:01;14.40;99.90
35258;DHT22;21385;50.878;8.050;2023-03-24T17:44:27;13.70;99.90
35258;DHT22;21385;50.878;8.050;2023-03-24T17:46:53;13.60;99.90
35258;DHT22;21385;50.878;8.050;2023-03-24T17:49:19;13.10;99.90
35258;DHT22;21385;50.878;8.050;2023-03-24T17:51:44;12.70;99.90
35258;DHT22;21385;50.878;8.050;2023-03-24T17:54:10;12.30;99.90
35258;DHT22;21385;50.878;8.050;2023-03-24T17:56:36;11.70;99.90
35258;DHT22;21385;50.878;8.050;2023-03-24T17:59:02;11.70;99.90
35258;DHT22;21385;50.878;8.050;2023-03-24T18:01:29;11.60;99.90
35258;DHT22;21385;50.878;8.050;2023-03-24T18:03:55;11.40;99.90
35258;DHT22;21385;50.878;8.050;2023-03-24T18:06:21;11.20;99.90
35258;DHT22;21385;50.878;8.050;2023-03-24T18:08:49;10.60;99.90
35258;DHT22;21385;50.878;8.050;2023-03-24T18:11:15;10.30;99.90
35258;DHT22;21385;50.878;8.050;2023-03-24T18:13:42;10.10;99.90
35258;DHT22;21385;50.878;8.050;2023-03-24T18:16:08;10.20;99.90
35258;DHT22;21385;50.878;8.050;2023-03-24T18:18:35;10.20;99.90
35258;DHT22;21385;50.878;8.050;2023-03-24T18:21:05;10.20;99.90
35258;DHT22;21385;50.878;8.050;2023-03-24T18:23:32;10.20;99.90
35258;DHT22;21385;50.878;8.050;2023-03-24T18:26:00;10.20;99.90
35258;DHT22;21385;50.878;8.050;2023-03-24T18:30:53;10.40;99.90
35258;DHT22;21385;50.878;8.050;2023-03-24T18:33:19;10.50;99.90
35258;DHT22;21385;50.878;8.050;2023-03-24T18:35:51;10.60;99.90
35258;DHT22;21385;50.878;8.050;2023-03-24T18:38:20;10.80;99.90
35258;DHT22;21385;50.878;8.050;2023-03-24T18:41:00;10.80;99.90
35258;DHT22;21385;50.878;8.050;2023-03-24T18:43:27;10.80;99.90
35258;DHT22;21385;50.878;8.050;2023-03-24T18:45:54;10.80;99.90
35258;DHT22;21385;50.878;8.050;2023-03-24T18:48:20;10.80;99.90
35258;DHT22;21385;50.878;8.050;2023-03-24T18:50:47;10.80;99.90
35258;DHT22;21385;50.878;8.050;2023-03-24T18:53:14;10.90;99.90
35258;DHT22;21385;50.878;8.050;2023-03-24T18:55:46;10.90;99.90